Terminal Aerodrome Forecast
Issued by NWS

Home | Current Version | Previous Version | Text Only | Print | Product List | Glossary On
Versions: 1 2 3 4 5 6 7 8 9 10 11 12 13 14 15 16 17 18 19 20 21 22 23 24 25 26 27
000
FTUS41 KOKX 010520
TAFGON
TAF
KGON 010520Z 0106/0206 12007KT P6SM FEW015 BKN050
     FM010700 VRB04KT 6SM BR VCSH SCT006 BKN015 BKN040
      TEMPO 0109/0113 3SM TSRA BKN015CB
     FM011300 15007KT 6SM -SHRA BR VCTS BKN012CB
     FM011600 23009KT P6SM SCT025 BKN040
     FM011900 26011G19KT P6SM BKN050=

USA.gov is the U.S. government's official web portal to all federal, state and local government web resources and services.